Time;durP1;ratioP1;P1;durP2;ratioP2;P2;SDS_P1;SDS_P2;PMS_P1;PMS_P2;Temp;Humidity;BMP_temperature;BMP_pressure;BME280_temperature;BME280_humidity;BME280_pressure;Samples;Min_cycle;Max_cycle;Signal;HPM_P1;HPM_P2
2023/09/07 00:01:08;;;;;;;16.30;15.50;;;19.30;99.90;;;;;;4958038;28;20467;-84
2023/09/07 00:03:40;;;;;;;15.13;14.53;;;19.30;99.90;;;;;;4956463;28;20559;-83
2023/09/07 00:06:10;;;;;;;15.93;15.20;;;19.30;99.90;;;;;;4958245;28;20484;-84
2023/09/07 00:08:40;;;;;;;15.60;15.00;;;19.30;99.90;;;;;;4958761;28;20461;-81
2023/09/07 00:11:10;;;;;;;16.00;15.33;;;19.30;99.90;;;;;;4960604;28;20457;-83
2023/09/07 00:13:38;;;;;;;16.17;15.30;;;19.20;99.90;;;;;;4954504;28;20975;-84
2023/09/07 00:16:07;;;;;;;15.47;14.70;;;19.20;99.90;;;;;;4955174;28;20472;-81
2023/09/07 00:18:35;;;;;;;15.17;14.47;;;19.20;99.90;;;;;;4961685;28;20548;-83
2023/09/07 00:21:04;;;;;;;15.13;14.33;;;19.10;99.90;;;;;;4962659;28;20542;-82
2023/09/07 00:23:32;;;;;;;15.70;15.10;;;19.10;99.90;;;;;;4957287;28;21093;-82
2023/09/07 00:26:02;;;;;;;15.23;14.63;;;19.10;99.90;;;;;;4960782;28;20482;-81
2023/09/07 00:28:30;;;;;;;15.20;14.70;;;19.00;99.90;;;;;;4953877;28;21211;-82
2023/09/07 00:30:59;;;;;;;16.13;15.30;;;19.00;99.90;;;;;;4959942;28;20458;-82
2023/09/07 00:33:27;;;;;;;15.80;15.00;;;19.00;99.90;;;;;;4962427;28;20492;-83
2023/09/07 00:35:55;;;;;;;15.80;15.10;;;18.90;99.90;;;;;;4960608;28;20575;-84
2023/09/07 00:38:23;;;;;;;15.53;14.93;;;18.90;1.00;;;;;;4955995;28;20456;-82
2023/09/07 00:40:51;;;;;;;15.63;15.03;;;18.90;1.00;;;;;;4959848;28;20455;-82
2023/09/07 00:43:20;;;;;;;15.33;14.73;;;18.90;1.00;;;;;;4956832;28;20480;-83
2023/09/07 00:45:49;;;;;;;15.23;14.63;;;18.80;1.00;;;;;;4960119;28;20893;-82
2023/09/07 00:48:17;;;;;;;14.90;14.30;;;18.90;1.00;;;;;;4960989;28;20445;-82
2023/09/07 00:50:46;;;;;;;15.00;14.40;;;18.90;1.00;;;;;;4954978;28;20954;-80
2023/09/07 00:53:15;;;;;;;14.73;14.13;;;18.90;99.90;;;;;;4957306;28;20499;-82
2023/09/07 00:55:43;;;;;;;14.67;14.17;;;18.80;99.90;;;;;;4961817;28;20492;-80
2023/09/07 00:58:12;;;;;;;15.03;14.43;;;18.80;99.90;;;;;;4956693;28;20456;-81
2023/09/07 01:00:42;;;;;;;15.10;14.40;;;18.80;1.00;;;;;;4958029;28;20489;-83
2023/09/07 01:03:10;;;;;;;15.60;14.90;;;18.70;1.00;;;;;;4958604;28;20534;-82
2023/09/07 01:05:47;;;;;;;15.53;14.63;;;18.70;1.00;;;;;;4964358;28;20495;-83
2023/09/07 01:08:24;;;;;;;14.73;14.13;;;18.70;1.00;;;;;;4958936;28;20494;-81
2023/09/07 01:10:53;;;;;;;15.10;14.43;;;18.60;1.00;;;;;;4957377;28;20452;-82
2023/09/07 01:13:21;;;;;;;15.20;14.60;;;18.70;1.00;;;;;;4956191;28;20572;-82
2023/09/07 01:15:51;;;;;;;15.57;14.97;;;18.60;1.00;;;;;;4956817;28;20510;-82
2023/09/07 01:18:20;;;;;;;15.20;14.53;;;18.60;1.00;;;;;;4962616;28;20926;-82
2023/09/07 01:20:54;;;;;;;15.87;15.00;;;18.60;1.00;;;;;;4959142;28;20622;-82
2023/09/07 01:23:24;;;;;;;15.33;14.63;;;18.60;1.00;;;;;;4960230;28;20536;-81
2023/09/07 01:25:53;;;;;;;15.00;14.40;;;18.50;1.00;;;;;;4959022;28;20591;-82
2023/09/07 01:28:22;;;;;;;15.07;14.40;;;18.50;1.00;;;;;;4960571;28;20464;-82
2023/09/07 01:30:53;;;;;;;15.83;15.20;;;18.50;1.00;;;;;;4958770;28;20449;-82
2023/09/07 01:33:21;;;;;;;15.10;14.40;;;18.40;1.00;;;;;;4958123;28;20475;-80
2023/09/07 01:35:49;;;;;;;15.43;14.50;;;18.50;1.00;;;;;;4959490;28;20483;-82
2023/09/07 01:38:17;;;;;;;15.70;15.10;;;18.40;1.00;;;;;;4955814;28;20457;-82
2023/09/07 01:40:47;;;;;;;14.63;14.10;;;18.40;1.00;;;;;;4961955;28;21110;-83
2023/09/07 01:43:15;;;;;;;14.93;14.27;;;18.40;1.00;;;;;;4977721;28;20845;-85
2023/09/07 01:45:43;;;;;;;15.50;14.80;;;18.40;1.00;;;;;;4957699;28;20239;-82
2023/09/07 01:48:13;;;;;;;16.13;15.20;;;18.40;1.00;;;;;;4962402;28;21052;-83
2023/09/07 01:50:41;;;;;;;15.50;14.80;;;18.30;1.00;;;;;;4961726;28;20542;-84
2023/09/07 01:53:09;;;;;;;15.30;14.70;;;18.30;1.00;;;;;;4962769;28;20485;-83
2023/09/07 01:55:37;;;;;;;15.40;14.80;;;18.40;1.00;;;;;;4962296;28;20566;-83
2023/09/07 01:58:07;;;;;;;15.83;15.13;;;18.40;1.00;;;;;;4960806;28;20464;-82
2023/09/07 02:00:38;;;;;;;15.60;15.00;;;18.40;1.00;;;;;;4956858;28;20490;-81
2023/09/07 02:03:07;;;;;;;15.70;15.00;;;18.30;1.00;;;;;;4962380;28;20907;-83
2023/09/07 02:05:35;;;;;;;14.70;14.07;;;18.20;1.00;;;;;;4960771;28;20494;-82
2023/09/07 02:08:04;;;;;;;14.50;13.90;;;18.20;1.00;;;;;;4965105;28;21026;-84
2023/09/07 02:10:33;;;;;;;14.73;14.13;;;18.10;1.00;;;;;;4959611;28;20511;-82
2023/09/07 02:13:02;;;;;;;15.63;14.83;;;18.10;1.00;;;;;;4966551;28;20483;-83
2023/09/07 02:15:31;;;;;;;14.20;13.70;;;18.10;1.00;;;;;;4959581;28;20484;-82
2023/09/07 02:17:59;;;;;;;15.27;14.67;;;18.10;1.00;;;;;;4961282;28;20460;-81
2023/09/07 02:20:27;;;;;;;14.97;14.37;;;18.20;1.00;;;;;;4967658;28;20466;-82
2023/09/07 02:22:55;;;;;;;15.27;14.57;;;18.10;1.00;;;;;;4961961;28;20452;-82
2023/09/07 02:25:24;;;;;;;15.50;14.80;;;18.10;1.00;;;;;;4960521;28;20476;-79
2023/09/07 02:27:52;;;;;;;15.50;14.67;;;18.10;1.00;;;;;;4961098;28;20548;-81
2023/09/07 02:30:20;;;;;;;15.57;14.87;;;18.10;1.00;;;;;;4958666;28;20467;-82
2023/09/07 02:32:50;;;;;;;16.63;14.73;;;18.10;1.00;;;;;;4961829;28;20464;-82
2023/09/07 02:35:18;;;;;;;15.10;14.40;;;18.00;1.00;;;;;;4956152;28;20475;-83
2023/09/07 02:37:46;;;;;;;16.47;15.77;;;18.00;1.00;;;;;;4964014;28;20994;-83
2023/09/07 02:40:15;;;;;;;15.93;15.33;;;17.90;1.00;;;;;;4960077;28;20451;-82
2023/09/07 02:42:43;;;;;;;15.83;15.00;;;17.90;1.00;;;;;;4964173;28;21033;-83
2023/09/07 02:45:12;;;;;;;15.60;15.00;;;17.80;1.00;;;;;;4965745;28;20501;-81
2023/09/07 02:47:40;;;;;;;15.67;15.07;;;17.90;1.00;;;;;;4960031;28;20463;-82
2023/09/07 02:50:10;;;;;;;15.67;15.00;;;17.80;1.00;;;;;;4961604;28;20460;-82
2023/09/07 02:52:40;;;;;;;15.50;14.70;;;17.80;1.00;;;;;;4962876;28;20493;-82
2023/09/07 02:55:08;;;;;;;15.53;14.83;;;17.80;1.00;;;;;;4966609;28;20570;-82
2023/09/07 02:57:37;;;;;;;14.83;14.23;;;17.80;1.00;;;;;;4959594;28;20910;-80
2023/09/07 03:00:09;;;;;;;15.10;14.57;;;17.80;1.00;;;;;;4961156;28;20465;-81
2023/09/07 03:02:38;;;;;;;15.40;14.70;;;17.80;1.00;;;;;;4958238;28;20461;-82
2023/09/07 03:05:06;;;;;;;16.17;15.47;;;17.70;1.00;;;;;;4959476;28;20479;-82
2023/09/07 03:07:36;;;;;;;15.30;14.70;;;17.70;1.00;;;;;;4959918;28;20448;-82
2023/09/07 03:10:04;;;;;;;15.60;14.83;;;17.70;1.00;;;;;;4957831;28;20459;-82
2023/09/07 03:12:32;;;;;;;15.40;14.70;;;17.70;1.00;;;;;;4961055;28;20459;-83
2023/09/07 03:15:03;;;;;;;15.40;14.60;;;17.70;1.00;;;;;;4957747;28;20492;-82
2023/09/07 03:17:31;;;;;;;15.00;14.47;;;17.60;1.00;;;;;;4964552;28;20550;-81
2023/09/07 03:19:59;;;;;;;15.60;15.00;;;17.60;1.00;;;;;;4960016;28;20853;-82
2023/09/07 03:22:29;;;;;;;15.00;14.40;;;17.60;1.00;;;;;;4962547;28;20447;-82
2023/09/07 03:24:58;;;;;;;15.80;15.10;;;17.60;1.00;;;;;;4958734;28;20476;-84
2023/09/07 03:27:27;;;;;;;16.30;15.60;;;17.60;1.00;;;;;;4962853;28;20471;-82
2023/09/07 03:29:55;;;;;;;15.60;14.90;;;17.60;1.00;;;;;;4960131;28;20467;-82
2023/09/07 03:32:23;;;;;;;15.93;15.33;;;17.60;1.00;;;;;;4964197;28;20464;-82
2023/09/07 03:34:51;;;;;;;16.07;15.27;;;17.50;1.00;;;;;;4964894;28;20487;-82
2023/09/07 03:37:19;;;;;;;15.83;15.13;;;17.50;1.00;;;;;;4959263;28;20460;-82
2023/09/07 03:39:47;;;;;;;15.97;15.37;;;17.50;1.00;;;;;;4959829;28;20452;-82
2023/09/07 03:42:17;;;;;;;16.53;15.73;;;17.50;1.00;;;;;;4961358;28;20458;-83
2023/09/07 03:44:45;;;;;;;16.73;15.93;;;17.50;1.00;;;;;;4963422;28;20518;-82
2023/09/07 03:47:15;;;;;;;15.60;15.00;;;17.40;1.00;;;;;;4959229;28;20460;-82
2023/09/07 03:49:44;;;;;;;16.30;15.67;;;17.40;1.00;;;;;;4957459;28;20467;-82
2023/09/07 03:52:12;;;;;;;16.37;15.57;;;17.40;1.00;;;;;;4960977;28;20464;-81
2023/09/07 03:54:40;;;;;;;16.60;15.90;;;17.40;1.00;;;;;;4953507;28;20627;-81
2023/09/07 03:57:08;;;;;;;15.50;14.80;;;17.40;1.00;;;;;;4957217;28;20541;-82
2023/09/07 03:59:38;;;;;;;16.10;15.40;;;17.40;1.00;;;;;;4955329;28;20962;-81
2023/09/07 04:02:06;;;;;;;15.17;14.63;;;17.40;1.00;;;;;;4954229;28;20469;-82
2023/09/07 04:04:34;;;;;;;16.00;15.30;;;17.40;1.00;;;;;;4962066;28;21401;-84
2023/09/07 04:07:03;;;;;;;15.90;15.20;;;17.40;1.00;;;;;;4961916;28;20884;-83
2023/09/07 04:09:32;;;;;;;15.37;14.80;;;17.30;1.00;;;;;;4961805;28;20555;-82
2023/09/07 04:12:00;;;;;;;16.00;15.40;;;17.40;1.00;;;;;;4957944;28;20460;-82
2023/09/07 04:14:30;;;;;;;16.40;15.70;;;17.40;1.00;;;;;;4958734;28;20515;-82
2023/09/07 04:16:59;;;;;;;16.50;15.90;;;17.30;1.00;;;;;;4971318;28;20544;-83
2023/09/07 04:19:28;;;;;;;17.30;16.40;;;17.20;1.00;;;;;;4958975;28;20464;-83
2023/09/07 04:21:58;;;;;;;16.83;16.13;;;17.20;1.00;;;;;;4957896;28;20456;-84
2023/09/07 04:24:27;;;;;;;16.40;15.80;;;17.20;1.00;;;;;;4961586;28;20456;-81
2023/09/07 04:26:59;;;;;;;16.97;16.30;;;17.10;1.00;;;;;;4961517;28;20466;-81
2023/09/07 04:29:28;;;;;;;16.60;15.90;;;17.10;1.00;;;;;;4957241;28;20528;-81
2023/09/07 04:31:56;;;;;;;17.50;16.80;;;17.10;1.00;;;;;;4958863;28;20463;-81
2023/09/07 04:34:26;;;;;;;17.40;16.70;;;17.10;1.00;;;;;;4956970;28;20475;-80
2023/09/07 04:36:54;;;;;;;17.17;16.37;;;17.10;1.00;;;;;;4961137;28;20457;-82
2023/09/07 04:39:22;;;;;;;17.60;16.90;;;17.10;1.00;;;;;;4957653;28;20456;-83
2023/09/07 04:41:52;;;;;;;17.60;16.53;;;17.10;1.00;;;;;;4956342;28;20457;-82
2023/09/07 04:44:20;;;;;;;16.27;15.70;;;17.10;1.00;;;;;;4959858;28;20886;-82
2023/09/07 04:46:49;;;;;;;17.23;16.53;;;17.10;1.00;;;;;;4955902;28;20487;-82
2023/09/07 04:49:18;;;;;;;16.70;16.03;;;17.10;1.00;;;;;;4958783;28;20460;-83
2023/09/07 04:51:47;;;;;;;16.60;16.03;;;17.00;1.00;;;;;;4949351;28;20977;-82
2023/09/07 04:54:16;;;;;;;16.53;15.93;;;17.00;1.00;;;;;;4960946;28;20463;-80
2023/09/07 04:56:44;;;;;;;16.57;15.67;;;17.00;1.00;;;;;;4955416;28;20587;-82
2023/09/07 04:59:12;;;;;;;16.13;15.53;;;17.00;1.00;;;;;;4956333;28;20470;-81
2023/09/07 05:01:40;;;;;;;16.40;15.77;;;16.90;1.00;;;;;;4961725;28;20471;-82
2023/09/07 05:04:08;;;;;;;17.03;16.27;;;17.00;1.00;;;;;;4958773;28;20487;-82
2023/09/07 05:06:38;;;;;;;16.53;15.83;;;17.00;1.00;;;;;;4957494;28;20879;-82
2023/09/07 05:09:08;;;;;;;16.27;15.70;;;17.00;1.00;;;;;;4960030;28;20468;-83
2023/09/07 05:11:36;;;;;;;16.07;15.47;;;17.00;1.00;;;;;;4959032;28;20470;-82
2023/09/07 05:14:04;;;;;;;16.67;15.67;;;16.90;1.00;;;;;;4955678;28;20463;-81
2023/09/07 05:16:32;;;;;;;16.70;16.00;;;16.90;1.00;;;;;;4956886;28;20488;-82
2023/09/07 05:19:00;;;;;;;16.80;16.00;;;16.90;1.00;;;;;;4952488;28;20845;-81
2023/09/07 05:21:29;;;;;;;16.67;15.90;;;16.90;1.00;;;;;;4955438;28;20459;-81
2023/09/07 05:23:57;;;;;;;17.00;16.00;;;16.90;1.00;;;;;;4959535;28;20456;-82
2023/09/07 05:26:26;;;;;;;16.93;16.13;;;17.00;1.00;;;;;;4959287;28;21034;-82
2023/09/07 05:28:55;;;;;;;15.70;15.10;;;16.90;1.00;;;;;;4960875;28;20456;-82
2023/09/07 05:31:25;;;;;;;16.67;15.87;;;16.90;1.00;;;;;;4958465;28;20448;-84
2023/09/07 05:33:53;;;;;;;16.50;15.70;;;16.90;1.00;;;;;;4956785;28;20503;-83
2023/09/07 05:36:21;;;;;;;15.40;14.90;;;17.00;1.00;;;;;;4961203;28;20503;-82
2023/09/07 05:38:50;;;;;;;15.97;15.37;;;17.00;9.90;;;;;;4962667;28;20460;-81
2023/09/07 05:41:18;;;;;;;16.77;15.97;;;17.00;18.70;;;;;;4960518;28;20451;-82
2023/09/07 05:43:48;;;;;;;16.70;15.97;;;17.00;6.10;;;;;;4959656;28;20471;-81
2023/09/07 05:46:17;;;;;;;16.67;16.07;;;17.00;41.90;;;;;;4965356;28;21905;-82
2023/09/07 05:48:45;;;;;;;17.33;16.53;;;17.00;51.50;;;;;;4963603;28;20523;-82
2023/09/07 05:51:13;;;;;;;17.80;16.73;;;17.10;49.10;;;;;;4962653;28;20885;-82
2023/09/07 05:53:41;;;;;;;17.63;16.77;;;17.10;91.80;;;;;;4956443;28;20464;-82
2023/09/07 05:56:09;;;;;;;16.97;16.27;;;17.10;37.80;;;;;;4958444;28;20581;-82
2023/09/07 05:58:37;;;;;;;17.77;16.97;;;17.20;16.60;;;;;;4954304;28;20571;-83
2023/09/07 06:01:07;;;;;;;17.40;16.60;;;17.20;41.30;;;;;;4963436;28;20444;-81
2023/09/07 06:03:35;;;;;;;17.87;16.97;;;17.30;1.00;;;;;;4959274;28;20465;-82
2023/09/07 06:06:04;;;;;;;17.63;16.87;;;17.40;1.00;;;;;;4961251;28;20478;-81
2023/09/07 06:08:32;;;;;;;17.70;16.90;;;17.50;1.00;;;;;;4962109;28;20737;-83
2023/09/07 06:11:01;;;;;;;17.97;17.23;;;17.70;1.00;;;;;;4953381;28;20465;-81
2023/09/07 06:13:29;;;;;;;17.80;17.00;;;17.80;1.00;;;;;;4957885;28;20471;-81
2023/09/07 06:16:00;;;;;;;19.03;18.00;;;18.00;1.00;;;;;;4957587;28;21162;-82
2023/09/07 06:18:29;;;;;;;19.23;18.23;;;18.20;1.00;;;;;;4963842;28;20538;-83
2023/09/07 06:21:01;;;;;;;18.97;18.10;;;18.40;1.00;;;;;;4962373;28;20556;-81
2023/09/07 06:23:31;;;;;;;20.52;18.98;;;18.50;1.00;;;;;;4960537;28;20463;-84
2023/09/07 06:25:59;;;;;;;19.63;18.73;;;18.40;1.00;;;;;;4969700;28;20243;-82
2023/09/07 06:28:27;;;;;;;19.33;18.43;;;18.50;1.00;;;;;;4960602;28;21079;-83
2023/09/07 06:30:56;;;;;;;19.40;18.40;;;18.50;1.00;;;;;;4960359;28;20459;-84
2023/09/07 06:33:24;;;;;;;19.27;18.40;;;18.50;1.00;;;;;;4962247;28;20541;-81
2023/09/07 06:35:54;;;;;;;19.80;18.80;;;18.50;1.00;;;;;;4956602;28;20487;-83
2023/09/07 06:38:22;;;;;;;19.40;18.33;;;18.60;1.00;;;;;;4967494;28;20492;-83
2023/09/07 06:40:50;;;;;;;19.30;18.40;;;18.70;1.00;;;;;;4962515;28;20535;-81
2023/09/07 06:43:18;;;;;;;19.27;18.37;;;18.80;1.00;;;;;;4963047;28;20523;-83
2023/09/07 06:45:47;;;;;;;18.47;17.67;;;18.80;1.00;;;;;;4959005;28;20475;-85
2023/09/07 06:48:15;;;;;;;19.27;18.27;;;18.80;1.00;;;;;;4965191;28;20467;-84
2023/09/07 06:50:43;;;;;;;19.60;18.50;;;18.90;1.00;;;;;;4956698;28;20623;-83
2023/09/07 06:53:13;;;;;;;20.07;19.17;;;18.90;1.00;;;;;;4960811;28;20543;-80
2023/09/07 06:55:41;;;;;;;19.90;18.70;;;19.00;1.00;;;;;;4953032;28;20480;-82
2023/09/07 06:58:09;;;;;;;19.63;18.73;;;19.10;1.00;;;;;;4960289;28;20884;-81
2023/09/07 07:00:37;;;;;;;20.20;19.23;;;19.10;1.00;;;;;;4949522;28;20463;-81
2023/09/07 07:03:05;;;;;;;19.47;18.57;;;19.20;1.00;;;;;;4955007;28;20451;-82
2023/09/07 07:05:33;;;;;;;19.50;18.60;;;19.20;1.00;;;;;;4964550;28;20465;-81
2023/09/07 07:08:02;;;;;;;19.33;18.53;;;19.30;1.00;;;;;;4965944;28;20460;-83
2023/09/07 07:10:32;;;;;;;19.60;18.60;;;19.30;1.00;;;;;;4957601;28;20453;-81
2023/09/07 07:13:00;;;;;;;19.70;18.73;;;19.40;1.00;;;;;;4957997;28;20444;-80
2023/09/07 07:15:29;;;;;;;19.70;18.90;;;19.50;1.00;;;;;;4960837;28;20560;-82
2023/09/07 07:17:59;;;;;;;20.13;19.23;;;19.60;1.00;;;;;;4963422;28;20461;-79
2023/09/07 07:20:27;;;;;;;19.50;18.70;;;19.60;1.00;;;;;;4963193;28;20575;-83
2023/09/07 07:22:55;;;;;;;19.77;18.90;;;19.70;1.00;;;;;;4954408;28;20449;-82
2023/09/07 07:25:23;;;;;;;19.87;18.97;;;19.80;1.00;;;;;;4956958;28;20476;-81
2023/09/07 07:27:53;;;;;;;19.47;18.57;;;19.80;1.00;;;;;;4962627;28;20767;-81
2023/09/07 07:30:21;;;;;;;20.50;19.40;;;19.90;1.00;;;;;;4956577;28;20453;-82
2023/09/07 07:32:50;;;;;;;19.27;18.37;;;19.90;1.00;;;;;;4963654;28;20467;-81
2023/09/07 07:35:19;;;;;;;19.30;18.30;;;20.00;1.00;;;;;;4953925;28;20536;-81
2023/09/07 07:37:47;;;;;;;19.70;18.67;;;20.00;1.00;;;;;;4958412;28;20488;-81
2023/09/07 07:40:15;;;;;;;19.23;18.43;;;20.00;1.00;;;;;;4966567;28;20464;-82
2023/09/07 07:42:44;;;;;;;20.52;19.63;;;20.10;1.00;;;;;;4960118;28;20510;-82
2023/09/07 07:45:13;;;;;;;19.90;19.00;;;20.10;1.00;;;;;;4955498;28;20224;-82
2023/09/07 07:47:41;;;;;;;20.17;19.07;;;20.30;1.00;;;;;;4958110;28;20473;-83
2023/09/07 07:50:10;;;;;;;19.53;18.73;;;20.40;1.00;;;;;;4954062;28;20520;-82
2023/09/07 07:52:38;;;;;;;18.93;18.13;;;20.50;1.00;;;;;;4958906;28;20455;-83
2023/09/07 07:55:07;;;;;;;19.43;18.63;;;20.50;1.00;;;;;;4958876;28;20825;-83
2023/09/07 07:57:35;;;;;;;18.60;17.90;;;20.70;1.00;;;;;;4957622;28;20494;-82
2023/09/07 08:00:05;;;;;;;19.00;18.00;;;20.80;1.00;;;;;;4959975;28;20461;-83
2023/09/07 08:02:35;;;;;;;19.30;18.50;;;20.90;1.00;;;;;;4959885;28;20461;-82
2023/09/07 08:05:04;;;;;;;19.20;18.37;;;20.90;99.90;;;;;;4957784;28;20537;-82
2023/09/07 08:07:32;;;;;;;19.30;18.33;;;21.00;99.90;;;;;;4960936;28;20492;-83
2023/09/07 08:10:00;;;;;;;20.00;19.20;;;21.10;99.90;;;;;;4954638;28;20462;-82
2023/09/07 08:12:28;;;;;;;21.07;19.97;;;21.20;99.90;;;;;;4961020;28;20629;-84
2023/09/07 08:14:57;;;;;;;20.20;19.20;;;21.30;99.90;;;;;;4959992;28;20472;-82
2023/09/07 08:17:25;;;;;;;20.43;19.53;;;21.40;99.90;;;;;;4962332;28;20481;-83
2023/09/07 08:19:56;;;;;;;20.10;19.10;;;21.50;99.90;;;;;;4959166;28;20544;-81
2023/09/07 08:22:27;;;;;;;20.10;19.20;;;21.50;99.90;;;;;;4959747;28;20213;-83
2023/09/07 08:24:56;;;;;;;20.80;19.70;;;21.60;99.90;;;;;;4964216;28;20481;-82
2023/09/07 08:27:24;;;;;;;20.47;19.57;;;21.60;99.90;;;;;;4956963;28;20537;-82
2023/09/07 08:29:53;;;;;;;20.57;19.63;;;21.60;99.90;;;;;;4955345;28;20477;-83
2023/09/07 08:32:22;;;;;;;20.23;19.33;;;21.70;99.90;;;;;;4961255;28;20459;-82
2023/09/07 08:34:56;;;;;;;21.27;20.37;;;21.80;99.90;;;;;;4956013;28;20501;-82
2023/09/07 08:37:26;;;;;;;21.10;20.00;;;21.80;99.90;;;;;;4958193;28;20599;-82
2023/09/07 08:39:55;;;;;;;20.83;19.93;;;21.80;99.90;;;;;;4956517;28;20465;-84
2023/09/07 08:42:24;;;;;;;20.27;19.47;;;21.90;99.90;;;;;;4964765;28;20453;-81
2023/09/07 08:44:58;;;;;;;20.40;19.50;;;22.00;99.90;;;;;;4961821;28;20539;-83
2023/09/07 08:47:30;;;;;;;20.67;19.63;;;22.10;99.90;;;;;;4965228;28;20750;-82
2023/09/07 08:49:59;;;;;;;20.90;19.90;;;22.10;99.90;;;;;;4979460;28;20467;-82
2023/09/07 08:52:29;;;;;;;20.73;19.73;;;22.10;99.90;;;;;;4965198;28;20468;-81
2023/09/07 08:55:00;;;;;;;20.57;19.53;;;22.10;99.90;;;;;;4963711;28;20475;-82
2023/09/07 08:57:30;;;;;;;20.00;19.20;;;22.20;99.90;;;;;;4963869;28;20559;-82
2023/09/07 08:59:58;;;;;;;18.97;18.17;;;22.30;99.90;;;;;;4968761;28;20446;-82
2023/09/07 09:02:27;;;;;;;20.27;19.37;;;22.40;99.90;;;;;;4962260;28;21249;-83
2023/09/07 09:04:55;;;;;;;21.47;20.50;;;22.40;99.90;;;;;;4967860;28;20480;-83
2023/09/07 09:07:23;;;;;;;20.67;19.67;;;22.40;99.90;;;;;;4970147;28;20452;-82
2023/09/07 09:10:05;;;;;;;20.70;19.67;;;22.40;99.90;;;;;;4966913;28;20456;-83
2023/09/07 09:12:33;;;;;;;21.67;20.27;;;22.50;99.90;;;;;;4963858;28;20463;-83
2023/09/07 09:15:03;;;;;;;20.07;19.27;;;22.50;99.90;;;;;;4961341;28;21300;-82
2023/09/07 09:17:32;;;;;;;20.37;19.27;;;22.60;99.90;;;;;;4965647;28;20472;-82
2023/09/07 09:20:01;;;;;;;19.93;19.13;;;22.70;99.90;;;;;;4966776;28;20468;-82
2023/09/07 09:22:29;;;;;;;20.30;19.50;;;22.70;99.90;;;;;;4957611;28;21314;-83
2023/09/07 09:25:04;;;;;;;19.50;18.67;;;22.80;99.90;;;;;;4959391;28;21040;-82
2023/09/07 09:27:34;;;;;;;19.80;18.90;;;22.80;99.90;;;;;;4957504;28;20495;-80
2023/09/07 09:30:04;;;;;;;18.87;18.07;;;22.90;99.90;;;;;;4961038;28;21008;-82
2023/09/07 09:32:32;;;;;;;19.97;19.07;;;23.00;99.90;;;;;;4958762;28;20987;-83
2023/09/07 09:35:02;;;;;;;19.80;19.00;;;23.00;99.90;;;;;;4960253;28;20484;-83
2023/09/07 09:37:31;;;;;;;19.53;18.73;;;23.10;99.90;;;;;;4961297;28;20416;-82
2023/09/07 09:40:05;;;;;;;20.00;19.20;;;23.10;99.90;;;;;;4961335;28;20472;-82
2023/09/07 09:42:33;;;;;;;19.97;18.97;;;23.20;99.90;;;;;;4956437;28;20452;-84
2023/09/07 09:45:04;;;;;;;20.27;19.37;;;23.30;99.90;;;;;;4956913;28;20485;-82
2023/09/07 09:47:34;;;;;;;19.93;19.13;;;23.40;99.90;;;;;;4958287;28;20456;-82
2023/09/07 09:50:06;;;;;;;20.00;19.10;;;23.40;99.90;;;;;;4959824;28;20475;-83
2023/09/07 09:52:35;;;;;;;18.80;18.10;;;23.50;99.90;;;;;;4963247;28;20458;-83
2023/09/07 09:55:12;;;;;;;21.07;20.17;;;23.50;99.90;;;;;;4962429;28;20484;-83
2023/09/07 09:57:40;;;;;;;20.40;19.47;;;23.50;99.90;;;;;;4965783;28;20958;-82
2023/09/07 10:00:25;;;;;;;19.90;19.13;;;23.60;99.90;;;;;;4964255;28;20466;-81
2023/09/07 10:03:00;;;;;;;21.07;19.97;;;23.60;99.90;;;;;;4966083;28;20476;-82
2023/09/07 10:05:30;;;;;;;20.73;19.73;;;23.60;99.90;;;;;;4960791;28;20470;-82
2023/09/07 10:08:05;;;;;;;19.63;18.83;;;23.60;99.90;;;;;;4961609;28;20882;-81
2023/09/07 10:10:37;;;;;;;19.60;18.80;;;23.60;99.90;;;;;;4959946;28;20543;-82
2023/09/07 10:13:06;;;;;;;20.40;19.50;;;23.80;99.90;;;;;;4963620;28;21115;-81
2023/09/07 10:15:35;;;;;;;19.70;18.70;;;23.90;99.90;;;;;;4963761;28;20492;-82
2023/09/07 10:18:05;;;;;;;19.33;18.43;;;24.00;99.90;;;;;;4964328;28;20489;-82
2023/09/07 10:20:49;;;;;;;19.60;18.80;;;24.10;99.90;;;;;;4962788;28;20466;-81
2023/09/07 10:23:17;;;;;;;20.20;19.30;;;24.10;99.90;;;;;;4960088;28;20977;-81
2023/09/07 10:25:51;;;;;;;20.27;19.10;;;24.00;99.90;;;;;;4957480;28;20489;-80
2023/09/07 10:28:20;;;;;;;19.77;18.97;;;24.00;99.90;;;;;;4960256;28;20444;-81
2023/09/07 10:30:59;;;;;;;20.30;19.40;;;24.00;99.90;;;;;;4963129;28;20498;-81
2023/09/07 10:33:28;;;;;;;20.30;19.50;;;24.10;99.90;;;;;;4961939;28;20463;-81
2023/09/07 10:35:56;;;;;;;20.63;19.83;;;24.20;99.90;;;;;;4961584;28;20484;-81
2023/09/07 10:38:24;;;;;;;20.10;19.30;;;24.20;99.90;;;;;;4959688;28;20495;-82
2023/09/07 10:40:58;;;;;;;20.03;19.23;;;24.20;99.90;;;;;;4962851;28;20459;-81
2023/09/07 10:43:27;;;;;;;20.20;19.30;;;24.30;99.90;;;;;;4962784;28;20492;-81
2023/09/07 10:45:56;;;;;;;20.67;19.77;;;24.30;99.90;;;;;;4963538;28;20900;-82
2023/09/07 10:48:27;;;;;;;20.50;19.60;;;24.30;99.90;;;;;;4966839;28;20490;-81
2023/09/07 10:50:56;;;;;;;20.90;20.00;;;24.40;99.90;;;;;;4961209;28;20456;-82
2023/09/07 10:53:29;;;;;;;21.30;20.00;;;24.40;99.90;;;;;;4961588;28;20470;-82
2023/09/07 10:56:03;;;;;;;20.23;19.23;;;24.40;99.90;;;;;;4961648;28;20480;-83
2023/09/07 10:58:32;;;;;;;19.63;18.93;;;24.40;99.90;;;;;;4961939;28;21081;-82
2023/09/07 11:01:01;;;;;;;21.80;20.63;;;24.50;99.90;;;;;;4963556;28;20547;-83
2023/09/07 11:03:29;;;;;;;26.20;24.60;;;24.50;99.90;;;;;;4967044;28;20453;-81
2023/09/07 11:06:04;;;;;;;32.83;29.93;;;24.50;99.90;;;;;;4963514;28;20582;-83
2023/09/07 11:08:33;;;;;;;31.60;28.90;;;24.40;99.90;;;;;;4962529;28;20974;-82
2023/09/07 11:11:03;;;;;;;28.30;26.40;;;24.40;99.90;;;;;;4961982;28;20471;-83
2023/09/07 11:13:32;;;;;;;21.40;20.30;;;24.40;99.90;;;;;;4963360;28;20490;-80
2023/09/07 11:16:01;;;;;;;20.33;19.47;;;24.40;99.90;;;;;;4961467;28;20575;-82
2023/09/07 11:18:30;;;;;;;20.60;19.60;;;24.50;99.90;;;;;;4960515;28;20485;-78
2023/09/07 11:20:59;;;;;;;21.10;20.00;;;24.60;99.90;;;;;;4959376;28;20540;-77
2023/09/07 11:23:28;;;;;;;23.57;22.07;;;24.60;99.90;;;;;;4957208;28;20464;-81
2023/09/07 11:25:57;;;;;;;22.50;21.30;;;24.60;99.90;;;;;;4958974;28;20464;-75
2023/09/07 11:28:31;;;;;;;21.50;20.17;;;24.60;99.90;;;;;;4957994;28;20547;-80
2023/09/07 11:31:00;;;;;;;20.87;19.97;;;24.60;99.90;;;;;;4957457;28;20468;-79
2023/09/07 11:33:33;;;;;;;21.60;20.43;;;24.80;99.90;;;;;;4957118;28;21460;-79
2023/09/07 11:36:02;;;;;;;22.23;20.97;;;24.80;99.90;;;;;;4952558;28;21055;-80
2023/09/07 11:38:36;;;;;;;21.70;20.43;;;24.80;99.90;;;;;;4958034;28;20492;-78
2023/09/07 11:41:04;;;;;;;21.10;20.00;;;24.80;99.90;;;;;;4959503;28;20496;-79
2023/09/07 11:43:33;;;;;;;20.30;19.30;;;24.80;99.90;;;;;;4956979;28;20464;-79
2023/09/07 11:46:03;;;;;;;20.40;19.40;;;24.80;99.90;;;;;;4958351;28;20484;-79
2023/09/07 11:48:33;;;;;;;21.10;20.20;;;24.80;99.90;;;;;;4959230;28;20495;-78
2023/09/07 11:51:02;;;;;;;21.07;20.10;;;24.80;99.90;;;;;;4964873;28;22202;-77
2023/09/07 11:53:30;;;;;;;20.47;19.67;;;24.90;99.90;;;;;;4955246;28;20920;-80
2023/09/07 11:55:59;;;;;;;19.93;18.97;;;24.90;99.90;;;;;;4956254;28;20477;-78
2023/09/07 11:58:27;;;;;;;20.57;19.67;;;24.90;99.90;;;;;;4959047;28;20489;-78
2023/09/07 12:00:59;;;;;;;21.00;19.80;;;24.80;99.90;;;;;;4958410;28;20582;-80
2023/09/07 12:03:29;;;;;;;21.50;20.60;;;24.90;99.90;;;;;;4959612;28;20545;-78
2023/09/07 12:05:58;;;;;;;20.20;19.33;;;25.00;99.90;;;;;;4957160;28;20505;-77
2023/09/07 12:08:26;;;;;;;20.23;19.33;;;24.90;99.90;;;;;;4954899;28;20442;-79
2023/09/07 12:10:54;;;;;;;20.97;20.00;;;25.00;99.90;;;;;;4956719;28;20470;-78
2023/09/07 12:13:22;;;;;;;20.37;19.50;;;25.10;99.90;;;;;;4958830;28;20466;-77
2023/09/07 12:15:51;;;;;;;21.23;20.13;;;25.00;99.90;;;;;;4954510;28;20483;-80
2023/09/07 12:18:21;;;;;;;20.70;19.67;;;25.00;99.90;;;;;;4956251;28;21013;-80
2023/09/07 12:20:49;;;;;;;21.33;20.13;;;25.00;99.90;;;;;;4959933;28;20500;-78
2023/09/07 12:23:18;;;;;;;20.47;19.57;;;25.20;99.90;;;;;;4955778;28;20444;-79
2023/09/07 12:25:50;;;;;;;20.20;19.30;;;25.20;99.90;;;;;;4954849;28;20836;-77
2023/09/07 12:28:18;;;;;;;20.70;19.80;;;25.20;99.90;;;;;;4954808;28;20455;-79
2023/09/07 12:30:47;;;;;;;20.47;19.47;;;25.20;99.90;;;;;;4954974;28;20471;-79
2023/09/07 12:33:15;;;;;;;20.37;19.47;;;25.20;99.90;;;;;;4956965;28;20479;-80
2023/09/07 12:35:44;;;;;;;20.40;19.17;;;25.20;99.90;;;;;;4950720;28;20497;-79
2023/09/07 12:38:17;;;;;;;20.27;19.13;;;25.20;99.90;;;;;;4954274;28;20463;-79
2023/09/07 12:40:45;;;;;;;19.03;18.33;;;25.40;99.90;;;;;;4954025;28;20465;-81
2023/09/07 12:43:13;;;;;;;19.23;18.43;;;25.30;99.90;;;;;;4954364;28;20468;-79